Sagehen Creek Weather observations

Data are for observation ending at time listed.
 Day   Time    Ave.   Ave.  Ave.  Vector   Max.   Stn.    Total    Solar   Ave.  
  of    of     Air    Rel.  Wind   Wind    Wind   Baro.  Precip.   Rad.    Soil  
Year   Day     Temp.  Hum.  Speed  Dir.    Gust   Pres.                    Temp. 
2015   (PST)    F      %     mph   deg.    mph     mb.     in.     W/m2     F   
------------------------------------------------------------------------------
  25   16:50   40.2    62    1.3   260      2.0   839.5    3.67       8    999.0
  25   17:00   38.8    65    1.0   263      1.9   839.7    3.67       6    999.0
  25   17:10   37.7    68    0.9   262      2.0   839.7    3.67       4    999.0
  25   17:20   36.6    70    1.0   245      1.9   839.6    3.67       3    999.0
  25   17:30   35.7    72    1.0   257      2.4   839.5    3.67       1    999.0
  25   17:40   34.9    73    0.6   259      2.2   839.8    3.67       0    999.0
  25   17:50   34.2    75    0.8   273      1.9   839.8    3.67       0    999.0
  25   18:00   33.6    76    1.1   243      2.1   839.8    3.67       0    999.0
  25   18:10   33.0    77    0.7   240      1.4   839.6    3.67       0    999.0
  25   18:20   32.6    77    0.5   267      1.3   839.8    3.67       0    999.0
  25   18:30   32.1    78    0.8   254      2.1   840.0    3.67       0    999.0
  25   18:40   31.6    79    0.9   259      1.7   839.8    3.67       0    999.0
  25   18:50   31.1    80    0.6   258      1.6   839.8    3.67       0    999.0
  25   19:00   30.7    81    0.7   251      1.4   839.9    3.67       0    999.0
  25   19:10   30.3    81    1.0   253      1.7   840.2    3.67       0    999.0
  25   19:20   30.0    82    1.0   246      2.1   840.0    3.67       0    999.0
  25   19:30   29.7    82    0.7   250      1.9   839.8    3.67       0    999.0
  25   19:40   29.4    83    1.1   227      2.6   840.2    3.67       0    999.0
  25   19:50   29.3    83    1.2   251      2.3   840.4    3.67       0    999.0
  25   20:00   29.0    83    1.1   261      2.0   840.5    3.67       0    999.0
  25   20:10   28.8    83    0.7   265      1.7   840.1    3.67       0    999.0
  25   20:20   28.4    84    0.5   252      1.3   840.3    3.67       0    999.0
  25   20:30   28.9    64    0.9   284      1.6   210.2    3.67       0    999.0
  25   20:40   27.8    85    0.6   266      1.4   840.6    3.67       0    999.0
  25   20:50   27.6    86    0.4   269      1.5   840.5    3.67       0    999.0
  25   21:00   27.4    86    0.7   282      1.8   840.3    3.67       0    999.0
  25   21:10   27.3    86    0.1   250      1.1   840.8    3.67       0    999.0
  25   21:20   27.0    86    0.3   268      1.0   840.8    3.67       0    999.0
  25   21:30   26.8    87    0.7   261      1.4   840.8    3.68       0    999.0
  25   21:40   26.7    87    0.6   267      2.0   840.3    3.67       0    999.0
  25   21:50   26.7    88    0.5   233      1.6   840.6    3.67       0    999.0
  25   22:00   26.6    88    0.6   285      2.1   840.8    3.67       0    999.0
  25   22:10   26.7    87    1.1   237      2.1   840.6    3.68       0    999.0
  25   22:20   26.6    87    0.4   285      1.2   840.6    3.67       0    999.0
  25   22:30   26.6    88    0.3   261      1.1   840.5    3.67       0    999.0
  25   22:40   26.5    88    0.3   237      1.1   840.8    3.67       0    999.0
  25   22:50   29.3    44    0.6   249      0.8     0.0    3.67       0    999.0
  25   23:00   26.6    88    0.8   247      1.7    14.0    3.68       0    999.0
  25   23:10   26.5    89    0.2   255      1.1   840.2    3.67       0    999.0
  25   23:20   26.3    89    0.3   258      1.6   840.5    3.68       0    999.0
  25   23:30   26.4    90    0.8   232      1.9   840.7    3.68       0    999.0
  25   23:40   26.4    89    0.6   269      1.2   840.3    3.67       0    999.0
  25   23:50   26.3    89    0.6   264      1.7   840.1    3.67       0    999.0
  26    0:00   26.3    89    0.4   244      1.2   840.0    3.67       0    999.0
  26    0:10   26.1    89    0.3   258      1.1   840.2    3.68       0    999.0
  26    0:20   26.1    90    0.4   247      1.3   840.1    3.67       0    999.0
  26    0:30   26.0    90    0.7   257      2.4   840.0    3.68       0    999.0
  26    0:40   26.0    90    0.8   270      1.5   839.8    3.68       0    999.0
  26    0:50   25.9    90    0.3   292      1.6   839.9    3.68       0    999.0
  26    1:00   25.9    90    0.6   266      1.8   840.0    3.68       0    999.0
  26    1:10   25.8    90    0.4   269      1.6   839.3    3.68       0    999.0
  26    1:20   25.8    90    0.4   270      1.4   839.5    3.68       0    999.0
  26    1:30   25.7    90    0.4   252      1.6   839.6    3.68       0    999.0
  26    1:40   25.6    90    0.5   308      1.8   839.7    3.68       0    999.0
  26    1:50   25.6    90    0.6   267      2.4   839.5    3.68       0    999.0
  26    2:00   25.5    90    0.3   290      1.2   839.3    3.68       0    999.0
  26    2:10   25.4    90    0.2   275      1.0   839.8    3.68       0    999.0
  26    2:20   25.3    91    0.4   266      1.1   839.8    3.68       0    999.0
  26    2:30   25.2    91    0.2   280      1.1   839.7    3.68       0    999.0
  26    2:40   25.2    91    0.6   282      1.9   839.4    3.67       0    999.0
  26    2:50   25.2    91    0.1   254      0.8   839.5    3.68       0    999.0
  26    3:00   25.1    91    0.4   256      1.0   839.6    3.68       0    999.0
  26    3:10   25.2    91    0.5   263      2.1   839.0    3.68       0    999.0
  26    3:20   25.2    91    1.3   294      2.7   839.1    3.68       0    999.0
  26    3:30   25.2    91    0.5   339      1.9   839.2    3.68       0    999.0
  26    3:40   25.1    91    0.4   267      1.4   839.3    3.68       0    999.0
  26    3:50   25.0    91    0.3   257      1.3   839.1    3.68       0    999.0
  26    4:00   24.9    91    0.2   302      1.1   838.8    3.68       0    999.0
  26    4:10   24.7    92    0.2   271      0.9   838.8    3.68       0    999.0
  26    4:20   24.5    92    0.0   236      0.5   838.9    3.68       0    999.0
  26    4:30   24.5    92    0.3   267      1.0   839.0    3.68       0    999.0
  26    4:40   24.4    92    0.2   262      0.9   838.8    3.68       0    999.0
  26    4:50   24.3    92    0.4   273      1.2   838.9    3.68       0    999.0
  26    5:00   24.3    92    0.6   267      1.2   839.0    3.68       0    999.0
  26    5:10   24.2    92    0.5   266      1.4   838.3    3.68       0    999.0
  26    5:20   24.1    92    0.3   290      1.0   838.5    3.68       0    999.0
  26    5:30   24.0    92    0.8   262      1.7   838.7    3.68       0    999.0
  26    5:40   23.9    92    0.4   267      0.9   838.9    3.68       0    999.0
  26    5:50   23.8    93    0.5   274      1.3   838.6    3.68       0    999.0
  26    6:00   23.6    93    0.6   274      1.6   838.2    3.68       0    999.0
  26    6:10   23.6    93    0.7   272      1.4   838.8    3.68       0    999.0
  26    6:20   23.4    93    0.1   285      0.6   838.7    3.68       0    999.0
  26    6:30   23.4    93    0.6   278      1.4   838.5    3.68       0    999.0
  26    6:40   23.2    93    0.5   271      1.4   838.5    3.68       0    999.0
  26    6:50   23.2    93    0.3   272      0.9   838.6    3.68       0    999.0
  26    7:00   23.1    93    0.5   278      1.0   838.6    3.68       0    999.0
  26    7:10   23.0    93    0.3   267      1.3   838.0    3.68       4    999.0
  26    7:20  999.0   999  999.0   999    999.0   999.0   999.00     999    999.0
  26    7:30   23.2    90    0.6   273      1.6    14.2    3.68      10    999.0
  26    7:40   22.9    93    0.1   303      1.2   838.0    3.68      15    999.0
  26    7:50   23.2    93    0.4   277      1.9   838.3    3.68      19    999.0
  26    8:00   23.4    93    0.4   238      1.4   838.5    3.68      27    999.0
  26    8:10   23.8    93    0.1   280      0.8   838.2    3.68      30    999.0
  26    8:20   24.3    93    0.1   260      1.1   838.0    3.68      36    999.0
  26    8:30   25.0    93    0.2   258      1.0   837.9    3.68      44    999.0
  26    8:40   25.8    92    0.4   256      1.7   838.2    3.68      52    999.0
  26    8:50   26.6    92    0.0   276      0.6   838.0    3.68      97    999.0
  26    9:00   27.6    91    0.5   182      1.5   837.8    3.68     132    999.0
  26    9:10   29.7    89    0.5   147      1.6   838.2    3.67     225    999.0
  26    9:20   32.0    84    0.6   169      2.1   838.2    3.67     311    999.0
  26    9:30   34.6    78    0.7   175      2.1   838.2    3.67     381    999.0
  26    9:40   36.7    74    0.7   150      2.3   837.7    3.67     381    999.0
  26    9:50   38.7    71    1.2   165      1.9   837.8    3.67     407    999.0
  26   10:00   40.3    68    1.3   161      2.7   838.0    3.67     399    999.0
  26   10:10   41.5    66    1.1   163      2.1   837.9    3.67     283    999.0
  26   10:20   41.4    66    0.5   179      1.4   838.0    3.67     257    999.0
  26   10:30   41.4    66    1.1   160      2.5   838.1    3.67     304    999.0
  26   10:40   42.9    63    0.8   134      2.8   838.1    3.67     236    999.0
  26   10:50   42.4    64    0.5   169      1.8   837.7    3.67     160    999.0
  26   11:00   40.7    67    0.3   162      1.6   837.4    3.67     194    999.0
  26   11:10   41.4    67    0.5   175      1.6   837.8    3.67     385    999.0
  26   11:20   44.6    58    0.5   182      2.9   837.4    3.67     306    999.0
  26   11:30   47.8    51    0.7   134      2.5   837.1    3.67     382    999.0
  26   11:40   50.1    43    1.7    97      3.3   837.5    3.67     447    999.0
  26   11:50   51.5    39    1.5   112      3.8   837.2    3.67     361    999.0
  26   12:00   52.5    35    2.2    98      5.1   836.8    3.67     602    999.0
  26   12:10   54.0    34    2.7    92      5.9   837.0    3.67     644    999.0
  26   12:20   55.3    33    2.5    84      6.0   836.9    3.67     578    999.0
  26   12:30   55.6    32    3.2    82      5.7   836.9    3.67     282    999.0
  26   12:40   54.3    32    1.9    83      4.7   836.4    3.67     292    999.0
  26   12:50   56.2    29    1.3   114      4.7   836.3    3.67     606    999.0
  26   13:00   57.6    27    2.8    76      5.7   836.1    3.67     474    999.0
  26   13:10   57.5    27    2.6    87      6.3   836.0    3.67     420    999.0
  26   13:20   57.2    28    2.4    91      6.1   835.9    3.67     346    999.0
  26   13:30   57.1    29    2.5   108      6.4   835.9    3.67     205    999.0
  26   13:40   57.3    28    3.0    87      6.4   836.0    3.67     219    999.0
  26   13:50   58.0    27    1.8   156      4.4   835.9    3.67     377    999.0
  26   14:00   57.7    27    2.2   125      5.5   835.7    3.67     148    999.0
  26   14:10   58.2    27    2.0   128      4.7   835.8    3.67     106    999.0
  26   14:20   58.7    26    1.7   130      3.5   835.7    3.67     116    999.0
  26   14:30   58.4    26    2.3   155      5.6   835.6    3.67     327    999.0
  26   14:40   58.3    26    1.8   119      4.0   835.7    3.67     414    999.0
  26   14:50   58.0    26    2.0   159      4.1   835.7    3.67     411    999.0
  26   15:00   58.1    26    1.7   198      3.9   835.6    3.67     381    999.0
  26   15:10   59.8    23    1.0   233      2.6   835.5    3.67     318    999.0
  26   15:20   59.2    24    1.1   208      3.5   835.4    3.67     186    999.0
  26   15:30   57.7    27    0.7   231      2.2   835.2    3.67     144    999.0
  26   15:40   53.6    37    0.8   216      2.0   835.3    3.67      35    999.0
  26   15:50   50.7    42    1.0   248      2.3   835.2    3.67      32    999.0
  26   16:00   48.7    48    0.9   241      2.0   835.1    3.67      35    999.0
  26   16:10   46.3    52    0.6   242      1.9   835.1    3.67      44    999.0
  26   16:20   44.1    58    0.6   252      1.6   835.3    3.67      58    999.0
  26   16:30   42.7    62    0.8   256      1.7   835.5    3.67      51    999.0
  26   16:40   41.8    64    0.6   252      1.4   835.4    3.67      31    999.0

Return to Sagehen Creek graphs page.


Western Regional Climate Center,wrcc@dri.edu